createdAt,value
2019-04-21T00:00:45.647Z,9.20
2019-04-21T00:03:23.023Z,9.53
2019-04-21T00:06:03.011Z,8.78
2019-04-21T00:08:35.357Z,9.50
2019-04-21T00:11:10.764Z,8.75
2019-04-21T00:13:32.368Z,9.78
2019-04-21T00:15:54.989Z,9.18
2019-04-21T00:18:47.997Z,9.70
2019-04-21T00:21:18.295Z,8.85
2019-04-21T00:23:56.169Z,10.78
2019-04-21T00:26:31.774Z,11.20
2019-04-21T00:29:09.161Z,12.13
2019-04-21T00:31:32.264Z,12.10
2019-04-21T00:33:46.720Z,11.35
2019-04-21T00:36:22.865Z,11.40
2019-04-21T00:39:16.995Z,10.82
2019-04-21T00:41:40.194Z,11.88
2019-04-21T00:44:00.666Z,11.97
2019-04-21T00:46:36.308Z,11.93
2019-04-21T00:49:08.528Z,12.53
2019-04-21T00:52:00.536Z,12.95
2019-04-21T00:54:29.369Z,11.68
2019-04-21T00:56:56.201Z,12.33
2019-04-21T00:59:20.159Z,11.75
2019-04-21T01:01:52.484Z,11.60
2019-04-21T01:04:29.491Z,10.80
2019-04-21T01:06:55.957Z,11.90
2019-04-21T01:09:25.944Z,12.10
2019-04-21T01:11:55.406Z,11.33
2019-04-21T01:14:34.371Z,13.05
2019-04-21T01:17:00.799Z,11.48
2019-04-21T01:19:32.046Z,11.75
2019-04-21T01:21:40.733Z,11.97
2019-04-21T01:24:19.284Z,13.05
2019-04-21T01:26:52.477Z,12.23
2019-04-21T01:29:37.353Z,12.73
2019-04-21T01:32:13.470Z,12.25
2019-04-21T01:34:39.327Z,11.93
2019-04-21T01:37:05.672Z,11.22
2019-04-21T01:39:41.183Z,12.53
2019-04-21T01:42:08.972Z,10.93
2019-04-21T01:44:44.493Z,11.08
2019-04-21T01:47:08.832Z,11.60
2019-04-21T01:49:32.746Z,11.75
2019-04-21T01:52:24.054Z,11.12
2019-04-21T01:55:00.350Z,11.38
2019-04-21T01:57:55.256Z,11.00
2019-04-21T02:00:40.849Z,11.85
2019-04-21T02:03:28.621Z,11.97
2019-04-21T02:05:46.770Z,10.90
2019-04-21T02:08:13.444Z,11.35
2019-04-21T02:10:47.718Z,12.50
2019-04-21T02:13:12.055Z,13.00
2019-04-21T02:15:48.768Z,11.93
2019-04-21T02:18:17.001Z,12.07
2019-04-21T02:20:39.850Z,12.73
2019-04-21T02:23:34.705Z,12.95
2019-04-21T02:25:53.344Z,12.93
2019-04-21T02:28:32.212Z,12.60
2019-04-21T02:31:18.104Z,13.18
2019-04-21T02:33:50.699Z,12.98
2019-04-21T02:39:00.576Z,13.05
2019-04-21T02:41:10.468Z,13.90
2019-04-21T02:43:39.176Z,13.93
2019-04-21T02:46:13.873Z,13.25
2019-04-21T02:48:51.382Z,13.20
2019-04-21T02:51:08.676Z,13.50
2019-04-21T02:54:01.684Z,12.68
2019-04-21T02:56:18.076Z,13.40
2019-04-21T02:59:02.438Z,13.38
2019-04-21T03:04:53.379Z,12.63
2019-04-21T03:10:04.811Z,11.85
2019-04-21T03:12:28.613Z,13.10
2019-04-21T03:15:11.958Z,12.88
2019-04-21T03:20:14.619Z,11.78
2019-04-21T03:22:31.533Z,13.90
2019-04-21T03:25:33.081Z,13.70
2019-04-21T03:30:33.375Z,12.95
2019-04-21T03:36:02.216Z,13.48
2019-04-21T03:37:47.759Z,12.88
2019-04-21T03:40:14.908Z,13.28
2019-04-21T03:45:25.168Z,12.55
2019-04-21T03:47:50.075Z,12.68
2019-04-21T03:50:27.772Z,12.87
2019-04-21T03:53:00.795Z,13.43
2019-04-21T03:58:15.211Z,13.08
2019-04-21T04:03:52.184Z,15.57
2019-04-21T04:06:38.856Z,13.32
2019-04-21T04:09:37.559Z,14.07
2019-04-21T04:12:05.147Z,13.73
2019-04-21T04:14:42.584Z,12.83
2019-04-21T04:24:39.142Z,13.83
2019-04-21T04:27:20.294Z,12.95
2019-04-21T04:29:48.344Z,13.90
2019-04-21T04:32:04.126Z,13.67
2019-04-21T04:34:47.667Z,13.70
2019-04-21T04:45:14.449Z,12.37
2019-04-21T04:47:49.873Z,13.35
2019-04-21T04:50:26.290Z,13.40
2019-04-21T04:52:46.356Z,15.45
2019-04-21T04:55:32.002Z,14.05
2019-04-21T05:05:44.498Z,14.70
2019-04-21T05:07:57.780Z,14.85
2019-04-21T05:10:41.667Z,14.15
2019-04-21T05:12:56.985Z,15.40
2019-04-21T05:15:42.494Z,14.60
2019-04-21T05:17:57.935Z,15.78
2019-04-21T05:20:24.253Z,14.20
2019-04-21T05:22:53.125Z,13.22
2019-04-21T05:25:18.564Z,14.53
2019-04-21T05:27:52.609Z,13.88
2019-04-21T05:30:50.782Z,14.47
2019-04-21T05:33:38.078Z,14.03
2019-04-21T05:36:22.270Z,12.47
2019-04-21T05:39:03.888Z,12.58
2019-04-21T05:41:27.717Z,12.85
2019-04-21T05:44:13.244Z,12.55
2019-04-21T05:46:49.578Z,12.93
2019-04-21T05:49:14.119Z,13.10
2019-04-21T05:51:55.638Z,11.53
2019-04-21T05:54:40.901Z,13.15
2019-04-21T05:57:05.938Z,10.55
2019-04-21T05:59:40.415Z,11.05
2019-04-21T06:02:18.545Z,12.55
2019-04-21T06:05:02.710Z,11.08
2019-04-21T06:07:21.524Z,11.05
2019-04-21T06:09:54.236Z,12.05
2019-04-21T06:12:14.621Z,11.15
2019-04-21T06:14:52.208Z,11.05
2019-04-21T06:17:19.393Z,10.80
2019-04-21T06:19:49.627Z,12.20
2019-04-21T06:22:14.869Z,12.25
2019-04-21T06:25:14.580Z,12.33
2019-04-21T06:27:26.414Z,10.32
2019-04-21T06:29:50.298Z,11.05
2019-04-21T06:37:47.397Z,11.73
2019-04-21T06:40:23.083Z,10.88
2019-04-21T06:42:39.209Z,10.72
2019-04-21T06:45:07.280Z,8.85
2019-04-21T06:47:51.391Z,9.25
2019-04-21T06:50:07.675Z,10.03
2019-04-21T06:55:12.521Z,8.95
2019-04-21T06:57:38.915Z,9.18
2019-04-21T07:00:06.281Z,8.93
2019-04-21T07:05:13.258Z,8.85
2019-04-21T07:07:52.173Z,8.93
2019-04-21T07:10:14.329Z,8.83
2019-04-21T07:12:45.015Z,9.38
2019-04-21T07:15:19.188Z,9.83
2019-04-21T07:17:45.726Z,9.85
2019-04-21T07:20:17.204Z,8.38
2019-04-21T07:22:47.866Z,8.80
2019-04-21T07:25:22.090Z,8.85
2019-04-21T07:27:52.028Z,9.13
2019-04-21T07:30:26.529Z,8.53
2019-04-21T07:32:59.467Z,9.13
2019-04-21T07:35:25.545Z,9.25
2019-04-21T07:37:54.154Z,9.00
2019-04-21T07:40:20.310Z,9.30
2019-04-21T07:42:55.638Z,9.33
2019-04-21T07:45:25.390Z,8.83
2019-04-21T07:48:03.137Z,9.85
2019-04-21T07:50:38.876Z,9.45
2019-04-21T07:53:21.126Z,9.38
2019-04-21T07:55:30.097Z,8.98
2019-04-21T07:58:22.323Z,8.90
2019-04-21T08:03:33.655Z,8.70
2019-04-21T08:05:58.873Z,8.80
2019-04-21T08:08:22.033Z,7.62
2019-04-21T08:10:53.641Z,9.15
2019-04-21T08:13:34.247Z,8.23
2019-04-21T08:15:57.726Z,8.05
2019-04-21T08:18:28.634Z,8.68
2019-04-21T08:21:00.805Z,9.43
2019-04-21T08:23:34.085Z,7.55
2019-04-21T08:26:04.765Z,8.15
2019-04-21T08:28:32.076Z,8.50
2019-04-21T08:31:09.878Z,8.25
2019-04-21T08:33:38.754Z,8.20
2019-04-21T08:36:23.170Z,7.67
2019-04-21T08:38:42.618Z,7.83
2019-04-21T08:41:08.616Z,6.45
2019-04-21T08:43:43.081Z,6.58
2019-04-21T08:46:13.779Z,5.83
2019-04-21T08:48:46.582Z,5.90
2019-04-21T08:53:47.583Z,5.58
2019-04-21T08:56:34.360Z,5.80
2019-04-21T08:59:34.288Z,6.53
2019-04-21T09:02:09.196Z,6.20
2019-04-21T09:04:33.493Z,5.42
2019-04-21T09:09:44.502Z,5.40
2019-04-21T09:12:10.608Z,4.65
2019-04-21T09:14:41.536Z,5.78
2019-04-21T09:17:06.457Z,5.30
2019-04-21T09:19:51.907Z,5.60
2019-04-21T09:22:12.813Z,4.62
2019-04-21T09:24:45.623Z,4.85
2019-04-21T09:27:15.858Z,5.05
2019-04-21T09:29:36.588Z,5.42
2019-04-21T09:32:01.933Z,5.03
2019-04-21T09:34:37.015Z,5.22
2019-04-21T09:37:15.404Z,4.40
2019-04-21T09:39:33.362Z,3.80
2019-04-21T09:42:06.208Z,4.60
2019-04-21T09:44:40.093Z,4.37
2019-04-21T09:47:07.395Z,4.20
2019-04-21T09:49:38.083Z,3.65
2019-04-21T09:52:18.514Z,4.75
2019-04-21T09:54:48.869Z,4.60
2019-04-21T09:57:22.838Z,4.58
2019-04-21T09:59:48.699Z,4.17
2019-04-21T10:02:18.228Z,4.05
2019-04-21T10:04:43.635Z,4.33
2019-04-21T10:07:24.529Z,4.33
2019-04-21T10:09:44.160Z,4.15
2019-04-21T10:12:14.261Z,4.30
2019-04-21T10:14:45.115Z,4.62
2019-04-21T10:17:27.730Z,4.40
2019-04-21T10:19:57.091Z,4.62
2019-04-21T10:22:26.761Z,4.67
2019-04-21T10:24:56.490Z,4.17
2019-04-21T10:27:27.258Z,4.62
2019-04-21T10:29:58.028Z,4.22
2019-04-21T10:32:28.204Z,4.37
2019-04-21T10:34:59.089Z,4.15
2019-04-21T10:37:44.138Z,4.67
2019-04-21T10:40:00.153Z,4.15
2019-04-21T10:42:29.616Z,4.97
2019-04-21T10:44:58.980Z,3.52
2019-04-21T10:47:29.333Z,4.05
2019-04-21T10:49:58.760Z,3.90
2019-04-21T10:52:47.199Z,4.10
2019-04-21T10:55:32.063Z,4.22
2019-04-21T10:58:06.409Z,3.90
2019-04-21T11:00:36.449Z,4.03
2019-04-21T11:03:24.749Z,4.33
2019-04-21T11:05:54.713Z,4.37
2019-04-21T11:08:30.679Z,4.40
2019-04-21T11:10:56.063Z,4.87
2019-04-21T11:13:26.411Z,4.65
2019-04-21T11:15:57.033Z,4.60
2019-04-21T11:18:26.464Z,4.40
2019-04-21T11:20:55.838Z,4.08
2019-04-21T11:23:25.239Z,3.85
2019-04-21T11:25:55.780Z,3.92
2019-04-21T11:28:25.254Z,4.78
2019-04-21T11:30:54.911Z,4.22
2019-04-21T11:33:24.951Z,4.05
2019-04-21T11:35:55.143Z,4.30
2019-04-21T11:38:33.478Z,4.12
2019-04-21T11:41:03.414Z,4.95
2019-04-21T11:43:32.965Z,4.60
2019-04-21T11:46:02.621Z,4.85
2019-04-21T11:48:32.513Z,4.08
2019-04-21T11:51:02.007Z,3.95
2019-04-21T11:53:32.782Z,5.12
2019-04-21T11:56:02.869Z,4.10
2019-04-21T11:58:32.221Z,4.60
2019-04-21T12:01:03.322Z,4.40
2019-04-21T12:03:33.654Z,4.62
2019-04-21T12:06:03.697Z,4.85
2019-04-21T12:08:40.387Z,5.08
2019-04-21T12:11:05.335Z,3.92
2019-04-21T12:13:36.109Z,4.50
2019-04-21T12:16:05.759Z,4.35
2019-04-21T12:18:36.716Z,4.05
2019-04-21T12:21:07.410Z,3.67
2019-04-21T12:23:36.827Z,3.77
2019-04-21T12:26:07.332Z,5.42
2019-04-21T12:28:37.642Z,4.58
2019-04-21T12:31:21.236Z,4.58
2019-04-21T12:34:01.579Z,5.42
2019-04-21T12:36:31.717Z,4.12
2019-04-21T12:39:03.286Z,4.00
2019-04-21T12:41:32.874Z,4.08
2019-04-21T12:44:02.646Z,4.92
2019-04-21T12:46:31.979Z,4.92
2019-04-21T12:49:02.152Z,5.12
2019-04-21T12:51:31.672Z,4.50
2019-04-21T12:54:01.640Z,3.70
2019-04-21T12:56:31.587Z,4.08
2019-04-21T12:59:01.564Z,4.30
2019-04-21T13:01:30.968Z,3.70
2019-04-21T13:04:01.827Z,4.58
2019-04-21T13:06:31.777Z,4.22
2019-04-21T13:09:05.244Z,3.42
2019-04-21T13:11:33.161Z,4.37
2019-04-21T13:14:03.964Z,4.40
2019-04-21T13:16:33.752Z,4.53
2019-04-21T13:19:03.222Z,4.30
2019-04-21T13:21:34.054Z,3.87
2019-04-21T13:24:04.908Z,4.22
2019-04-21T13:26:43.076Z,5.50
2019-04-21T13:29:06.045Z,4.45
2019-04-21T13:31:36.234Z,4.80
2019-04-21T13:34:06.169Z,4.17
2019-04-21T13:36:35.966Z,4.03
2019-04-21T13:40:09.972Z,5.53
2019-04-21T13:42:25.908Z,4.70
2019-04-21T13:44:48.817Z,4.30
2019-04-21T13:47:18.639Z,4.53
2019-04-21T13:49:49.508Z,3.60
2019-04-21T13:52:18.935Z,3.70
2019-04-21T13:54:49.552Z,4.03
2019-04-21T13:57:19.007Z,4.65
2019-04-21T13:59:49.590Z,4.40
2019-04-21T14:02:20.714Z,4.30
2019-04-21T14:04:51.676Z,3.80
2019-04-21T14:07:21.215Z,4.00
2019-04-21T14:09:57.571Z,3.90
2019-04-21T14:12:21.658Z,3.92
2019-04-21T14:14:52.383Z,4.75
2019-04-21T14:17:22.494Z,4.17
2019-04-21T14:19:53.084Z,3.77
2019-04-21T14:22:24.234Z,4.20
2019-04-21T14:24:54.127Z,3.55
2019-04-21T14:27:24.025Z,4.05
2019-04-21T14:29:53.615Z,3.52
2019-04-21T14:32:24.254Z,3.95
2019-04-21T14:34:54.114Z,4.50
2019-04-21T14:37:24.678Z,4.00
2019-04-21T14:40:01.833Z,4.47
2019-04-21T14:42:26.150Z,4.42
2019-04-21T14:44:56.795Z,3.90
2019-04-21T14:47:48.284Z,3.20
2019-04-21T14:50:34.935Z,4.12
2019-04-21T14:53:11.845Z,3.80
2019-04-21T14:55:43.566Z,3.90
2019-04-21T14:58:13.003Z,3.77
2019-04-21T15:01:04.190Z,4.35
2019-04-21T15:03:34.157Z,3.45
2019-04-21T15:06:03.679Z,3.12
2019-04-21T15:08:33.442Z,3.62
2019-04-21T15:11:03.221Z,3.70
2019-04-21T15:13:32.650Z,3.40
2019-04-21T15:16:02.727Z,3.12
2019-04-21T15:18:32.766Z,3.98
2019-04-21T15:21:03.633Z,3.85
2019-04-21T15:23:33.923Z,3.58
2019-04-21T15:26:04.194Z,4.03
2019-04-21T15:28:35.558Z,3.60
2019-04-21T15:31:04.931Z,4.20
2019-04-21T15:33:35.004Z,4.92
2019-04-21T15:36:05.060Z,4.58
2019-04-21T15:38:35.805Z,3.72
2019-04-21T15:41:10.060Z,3.83
2019-04-21T15:43:36.426Z,4.60
2019-04-21T15:46:06.784Z,4.55
2019-04-21T15:48:37.064Z,4.05
2019-04-21T15:51:08.445Z,4.87
2019-04-21T15:53:37.950Z,4.97
2019-04-21T15:56:21.083Z,4.08
2019-04-21T15:58:58.913Z,4.12
2019-04-21T16:01:46.405Z,5.12
2019-04-21T16:04:16.828Z,5.90
2019-04-21T16:06:47.722Z,3.60
2019-04-21T16:09:21.433Z,3.95
2019-04-21T16:11:49.750Z,4.92
2019-04-21T16:14:20.510Z,3.42
2019-04-21T16:16:51.619Z,4.60
2019-04-21T16:19:22.905Z,4.50
2019-04-21T16:21:52.821Z,4.67
2019-04-21T16:24:23.279Z,4.30
2019-04-21T16:26:53.022Z,4.08
2019-04-21T16:29:23.000Z,3.98
2019-04-21T16:31:53.297Z,3.42
2019-04-21T16:34:35.394Z,4.17
2019-04-21T16:36:53.971Z,3.45
2019-04-21T16:39:23.384Z,3.22
2019-04-21T16:41:54.071Z,3.25
2019-04-21T16:44:25.171Z,3.47
2019-04-21T16:46:55.711Z,4.25
2019-04-21T16:49:25.494Z,4.15
2019-04-21T16:52:12.545Z,4.12
2019-04-21T16:54:44.117Z,6.12
2019-04-21T16:57:39.747Z,3.70
2019-04-21T17:00:25.490Z,3.62
2019-04-21T17:02:44.262Z,3.10
2019-04-21T17:05:14.349Z,3.02
2019-04-21T17:07:44.947Z,4.17
2019-04-21T17:10:14.827Z,4.78
2019-04-21T17:12:45.505Z,4.40
2019-04-21T17:15:33.813Z,4.58
2019-04-21T17:18:06.130Z,3.60
2019-04-21T17:20:33.378Z,3.62
2019-04-21T17:22:49.505Z,3.33
2019-04-21T17:25:21.589Z,3.35
2019-04-21T17:27:51.374Z,4.12
2019-04-21T17:30:22.246Z,3.77
2019-04-21T17:32:53.310Z,4.00
2019-04-21T17:35:22.933Z,6.03
2019-04-21T17:37:52.307Z,4.78
2019-04-21T17:40:24.169Z,3.90
2019-04-21T17:43:01.622Z,3.40
2019-04-21T17:45:24.994Z,3.33
2019-04-21T17:48:02.383Z,3.45
2019-04-21T17:50:56.337Z,3.83
2019-04-21T17:53:44.749Z,4.10
2019-04-21T17:56:31.490Z,3.92
2019-04-21T17:58:56.724Z,4.45
2019-04-21T18:01:33.184Z,4.45
2019-04-21T18:04:05.239Z,6.33
2019-04-21T18:06:58.809Z,9.28
2019-04-21T18:09:36.398Z,8.60
2019-04-21T18:12:06.778Z,6.33
2019-04-21T18:14:18.982Z,4.53
2019-04-21T18:16:49.883Z,5.28
2019-04-21T18:19:19.419Z,4.62
2019-04-21T18:22:09.156Z,4.12
2019-04-21T18:24:48.912Z,4.42
2019-04-21T18:27:13.768Z,5.50
2019-04-21T18:29:44.459Z,5.97
2019-04-21T18:32:19.729Z,5.03
2019-04-21T18:35:15.380Z,6.05
2019-04-21T18:38:23.760Z,5.95
2019-04-21T18:40:50.855Z,5.75
2019-04-21T18:46:40.063Z,6.12
2019-04-21T18:49:02.602Z,5.40
2019-04-21T18:52:00.838Z,4.47
2019-04-21T18:54:36.056Z,4.95
2019-04-21T18:57:07.238Z,5.50
2019-04-21T18:59:31.079Z,6.80
2019-04-21T19:02:02.403Z,5.90
2019-04-21T19:04:32.419Z,5.20
2019-04-21T19:07:12.952Z,4.37
2019-04-21T19:12:25.405Z,4.67
2019-04-21T19:14:47.887Z,4.00
2019-04-21T19:17:42.701Z,4.85
2019-04-21T19:19:54.351Z,4.95
2019-04-21T19:22:21.691Z,5.05
2019-04-21T19:24:54.866Z,4.10
2019-04-21T19:27:36.530Z,4.00
2019-04-21T19:30:09.376Z,5.90
2019-04-21T19:32:27.328Z,5.70
2019-04-21T19:34:43.195Z,5.80
2019-04-21T19:37:16.425Z,4.10
2019-04-21T19:39:56.682Z,5.78
2019-04-21T19:42:25.507Z,4.85
2019-04-21T19:44:59.397Z,5.40
2019-04-21T19:47:41.727Z,5.37
2019-04-21T19:50:06.218Z,5.22
2019-04-21T19:52:30.703Z,5.28
2019-04-21T19:54:50.774Z,4.75
2019-04-21T19:57:20.925Z,4.37
2019-04-21T19:59:55.311Z,5.05
2019-04-21T20:02:22.424Z,4.85
2019-04-21T20:05:00.820Z,5.10
2019-04-21T20:07:38.236Z,4.90
2019-04-21T20:10:14.423Z,4.80
2019-04-21T20:13:03.376Z,4.80
2019-04-21T20:15:20.314Z,5.08
2019-04-21T20:17:42.436Z,5.28
2019-04-21T20:19:58.271Z,5.28
2019-04-21T20:22:32.663Z,5.25
2019-04-21T20:25:07.756Z,4.75
2019-04-21T20:27:38.862Z,4.65
2019-04-21T20:30:21.721Z,4.78
2019-04-21T20:32:49.088Z,5.67
2019-04-21T20:35:34.696Z,5.58
2019-04-21T20:37:47.733Z,5.42
2019-04-21T20:40:18.144Z,5.03
2019-04-21T20:42:47.063Z,6.45
2019-04-21T20:45:38.377Z,5.05
2019-04-21T20:47:44.754Z,5.15
2019-04-21T20:50:19.776Z,5.00
2019-04-21T20:52:59.619Z,6.05
2019-04-21T20:55:22.345Z,6.03
2019-04-21T20:57:58.045Z,5.58
2019-04-21T21:00:46.192Z,5.90
2019-04-21T21:03:09.237Z,5.60
2019-04-21T21:05:35.093Z,5.15
2019-04-21T21:08:13.364Z,6.00
2019-04-21T21:10:36.963Z,4.95
2019-04-21T21:13:14.827Z,4.97
2019-04-21T21:15:43.944Z,5.40
2019-04-21T21:18:22.831Z,7.47
2019-04-21T21:20:43.652Z,5.62
2019-04-21T21:23:09.214Z,4.97
2019-04-21T21:25:51.140Z,5.17
2019-04-21T21:28:07.536Z,5.62
2019-04-21T21:30:37.628Z,5.10
2019-04-21T21:33:16.939Z,5.22
2019-04-21T21:35:43.776Z,5.70
2019-04-21T21:38:19.942Z,5.20
2019-04-21T21:40:45.584Z,5.58
2019-04-21T21:43:09.202Z,4.70
2019-04-21T21:45:44.808Z,6.62
2019-04-21T21:48:21.845Z,5.15
2019-04-21T21:50:45.647Z,4.12
2019-04-21T21:53:14.473Z,4.20
2019-04-21T21:55:40.581Z,4.80
2019-04-21T21:58:11.954Z,4.15
2019-04-21T22:00:46.750Z,4.20
2019-04-21T22:03:19.719Z,4.50
2019-04-21T22:05:50.452Z,5.08
2019-04-21T22:08:16.255Z,5.05
2019-04-21T22:10:47.233Z,4.65
2019-04-21T22:13:21.490Z,5.22
2019-04-21T22:15:55.426Z,5.03
2019-04-21T22:18:34.974Z,4.90
2019-04-21T22:21:03.629Z,5.10
2019-04-21T22:23:29.481Z,4.60
2019-04-21T22:25:53.370Z,4.67
2019-04-21T22:28:22.889Z,4.50
2019-04-21T22:30:53.671Z,4.25
2019-04-21T22:33:23.472Z,4.95
2019-04-21T22:35:59.196Z,4.92
2019-04-21T22:38:42.595Z,4.62
2019-04-21T22:41:09.937Z,5.25
2019-04-21T22:43:32.473Z,4.75
2019-04-21T22:45:59.024Z,4.37
2019-04-21T22:48:29.046Z,4.83
2019-04-21T22:51:00.595Z,4.42
2019-04-21T22:53:37.417Z,4.45
2019-04-21T22:56:11.975Z,4.95
2019-04-21T22:58:37.359Z,4.00
2019-04-21T23:01:04.235Z,4.85
2019-04-21T23:03:35.727Z,4.70
2019-04-21T23:06:09.738Z,4.55
2019-04-21T23:08:40.526Z,4.33
2019-04-21T23:11:12.185Z,4.17
2019-04-21T23:13:40.152Z,4.33
2019-04-21T23:16:09.924Z,4.20
2019-04-21T23:18:54.401Z,4.35
2019-04-21T23:21:24.728Z,4.50
2019-04-21T23:24:01.846Z,4.50
2019-04-21T23:26:34.840Z,4.55
2019-04-21T23:29:01.854Z,4.28
2019-04-21T23:31:34.148Z,4.42
2019-04-21T23:33:46.706Z,4.90
2019-04-21T23:36:21.040Z,5.50
2019-04-21T23:38:50.122Z,5.50
2019-04-21T23:41:19.462Z,5.25
2019-04-21T23:43:53.117Z,4.53
2019-04-21T23:46:26.200Z,4.33
2019-04-21T23:49:07.143Z,4.25
2019-04-21T23:51:34.441Z,3.98
2019-04-21T23:53:53.344Z,3.90
2019-04-21T23:56:30.000Z,5.58
2019-04-21T23:58:59.852Z,4.80
